sensor_id;sensor_type;location;lat;lon;timestamp;P1;durP1;ratioP1;P2;durP2;ratioP2
29814;SDS011;16708;50.426;7.664;2022-09-09T00:02:25;7.50;;;1.00;;
29814;SDS011;16708;50.426;7.664;2022-09-09T00:07:20;4.90;;;0.90;;
29814;SDS011;16708;50.426;7.664;2022-09-09T00:12:14;3.40;;;1.30;;
29814;SDS011;16708;50.426;7.664;2022-09-09T00:17:09;3.50;;;0.80;;
29814;SDS011;16708;50.426;7.664;2022-09-09T00:22:03;3.70;;;0.70;;
29814;SDS011;16708;50.426;7.664;2022-09-09T00:31:52;5.00;;;0.90;;
29814;SDS011;16708;50.426;7.664;2022-09-09T00:36:47;3.80;;;1.20;;
29814;SDS011;16708;50.426;7.664;2022-09-09T00:41:42;5.50;;;0.90;;
29814;SDS011;16708;50.426;7.664;2022-09-09T00:46:35;3.20;;;0.90;;
29814;SDS011;16708;50.426;7.664;2022-09-09T00:51:30;5.50;;;0.80;;
29814;SDS011;16708;50.426;7.664;2022-09-09T01:01:19;3.50;;;0.90;;
29814;SDS011;16708;50.426;7.664;2022-09-09T01:06:14;3.90;;;0.80;;
29814;SDS011;16708;50.426;7.664;2022-09-09T01:16:03;4.30;;;0.90;;
29814;SDS011;16708;50.426;7.664;2022-09-09T01:25:53;4.70;;;0.90;;
29814;SDS011;16708;50.426;7.664;2022-09-09T01:30:47;5.60;;;0.90;;
29814;SDS011;16708;50.426;7.664;2022-09-09T01:35:41;4.10;;;0.90;;
29814;SDS011;16708;50.426;7.664;2022-09-09T01:40:36;4.60;;;0.90;;
29814;SDS011;16708;50.426;7.664;2022-09-09T01:45:31;3.00;;;0.70;;
29814;SDS011;16708;50.426;7.664;2022-09-09T01:50:25;4.50;;;0.80;;
29814;SDS011;16708;50.426;7.664;2022-09-09T01:55:19;3.40;;;0.90;;
29814;SDS011;16708;50.426;7.664;2022-09-09T02:00:14;3.20;;;0.70;;
29814;SDS011;16708;50.426;7.664;2022-09-09T02:05:09;4.90;;;0.80;;
29814;SDS011;16708;50.426;7.664;2022-09-09T02:10:04;3.50;;;0.80;;
29814;SDS011;16708;50.426;7.664;2022-09-09T02:14:59;4.10;;;0.90;;
29814;SDS011;16708;50.426;7.664;2022-09-09T02:19:54;6.10;;;1.00;;
29814;SDS011;16708;50.426;7.664;2022-09-09T02:24:48;3.40;;;1.10;;
29814;SDS011;16708;50.426;7.664;2022-09-09T02:29:42;3.90;;;0.90;;
29814;SDS011;16708;50.426;7.664;2022-09-09T02:34:37;5.50;;;1.20;;
29814;SDS011;16708;50.426;7.664;2022-09-09T02:39:31;5.70;;;1.10;;
29814;SDS011;16708;50.426;7.664;2022-09-09T02:44:26;3.70;;;1.00;;
29814;SDS011;16708;50.426;7.664;2022-09-09T02:49:21;3.10;;;0.90;;
29814;SDS011;16708;50.426;7.664;2022-09-09T02:54:15;4.70;;;1.20;;
29814;SDS011;16708;50.426;7.664;2022-09-09T02:59:09;5.20;;;0.90;;
29814;SDS011;16708;50.426;7.664;2022-09-09T03:04:03;5.40;;;1.10;;
29814;SDS011;16708;50.426;7.664;2022-09-09T03:08:58;6.70;;;1.10;;
29814;SDS011;16708;50.426;7.664;2022-09-09T03:13:53;4.40;;;0.90;;
29814;SDS011;16708;50.426;7.664;2022-09-09T03:18:47;9.00;;;1.10;;
29814;SDS011;16708;50.426;7.664;2022-09-09T03:23:42;3.50;;;1.00;;
29814;SDS011;16708;50.426;7.664;2022-09-09T03:28:36;5.80;;;1.10;;
29814;SDS011;16708;50.426;7.664;2022-09-09T03:33:31;6.00;;;1.00;;
29814;SDS011;16708;50.426;7.664;2022-09-09T03:38:26;4.30;;;0.90;;
29814;SDS011;16708;50.426;7.664;2022-09-09T03:43:21;5.00;;;1.10;;
29814;SDS011;16708;50.426;7.664;2022-09-09T03:48:15;4.00;;;1.20;;
29814;SDS011;16708;50.426;7.664;2022-09-09T03:53:09;5.00;;;1.10;;
29814;SDS011;16708;50.426;7.664;2022-09-09T03:58:03;6.70;;;1.40;;
29814;SDS011;16708;50.426;7.664;2022-09-09T04:02:58;4.00;;;1.00;;
29814;SDS011;16708;50.426;7.664;2022-09-09T04:07:53;5.20;;;0.80;;
29814;SDS011;16708;50.426;7.664;2022-09-09T04:12:47;4.60;;;1.30;;
29814;SDS011;16708;50.426;7.664;2022-09-09T04:17:42;4.20;;;1.00;;
29814;SDS011;16708;50.426;7.664;2022-09-09T04:22:37;5.30;;;0.90;;
29814;SDS011;16708;50.426;7.664;2022-09-09T04:27:32;3.60;;;1.10;;
29814;SDS011;16708;50.426;7.664;2022-09-09T04:32:26;5.20;;;1.30;;
29814;SDS011;16708;50.426;7.664;2022-09-09T04:37:21;3.20;;;0.90;;
29814;SDS011;16708;50.426;7.664;2022-09-09T04:42:16;4.60;;;1.10;;
29814;SDS011;16708;50.426;7.664;2022-09-09T04:47:10;3.30;;;0.90;;
29814;SDS011;16708;50.426;7.664;2022-09-09T04:52:04;4.50;;;1.00;;
29814;SDS011;16708;50.426;7.664;2022-09-09T04:56:59;6.50;;;1.10;;
29814;SDS011;16708;50.426;7.664;2022-09-09T05:01:54;4.00;;;1.10;;
29814;SDS011;16708;50.426;7.664;2022-09-09T05:06:49;6.40;;;1.30;;
29814;SDS011;16708;50.426;7.664;2022-09-09T05:11:43;4.60;;;1.10;;
29814;SDS011;16708;50.426;7.664;2022-09-09T05:16:41;6.30;;;1.00;;
29814;SDS011;16708;50.426;7.664;2022-09-09T05:21:31;4.90;;;0.90;;
29814;SDS011;16708;50.426;7.664;2022-09-09T05:26:25;6.40;;;1.20;;
29814;SDS011;16708;50.426;7.664;2022-09-09T05:31:20;4.70;;;1.20;;
29814;SDS011;16708;50.426;7.664;2022-09-09T05:36:15;6.40;;;1.70;;
29814;SDS011;16708;50.426;7.664;2022-09-09T05:41:10;9.50;;;1.10;;
29814;SDS011;16708;50.426;7.664;2022-09-09T05:46:05;3.00;;;0.90;;
29814;SDS011;16708;50.426;7.664;2022-09-09T05:50:59;4.30;;;1.10;;
29814;SDS011;16708;50.426;7.664;2022-09-09T05:55:54;5.00;;;1.20;;
29814;SDS011;16708;50.426;7.664;2022-09-09T06:00:49;6.40;;;1.00;;
29814;SDS011;16708;50.426;7.664;2022-09-09T06:05:43;4.50;;;0.90;;
29814;SDS011;16708;50.426;7.664;2022-09-09T06:10:37;6.60;;;1.00;;
29814;SDS011;16708;50.426;7.664;2022-09-09T06:15:31;6.70;;;1.30;;
29814;SDS011;16708;50.426;7.664;2022-09-09T06:20:26;3.90;;;1.10;;
29814;SDS011;16708;50.426;7.664;2022-09-09T06:25:21;3.80;;;1.00;;
29814;SDS011;16708;50.426;7.664;2022-09-09T06:30:16;5.20;;;1.20;;
29814;SDS011;16708;50.426;7.664;2022-09-09T06:35:10;9.50;;;1.80;;
29814;SDS011;16708;50.426;7.664;2022-09-09T06:40:03;4.90;;;1.10;;
29814;SDS011;16708;50.426;7.664;2022-09-09T06:44:58;7.90;;;1.40;;
29814;SDS011;16708;50.426;7.664;2022-09-09T06:49:52;5.70;;;1.20;;
29814;SDS011;16708;50.426;7.664;2022-09-09T06:54:47;5.30;;;1.20;;
29814;SDS011;16708;50.426;7.664;2022-09-09T06:59:42;4.70;;;1.10;;
29814;SDS011;16708;50.426;7.664;2022-09-09T07:04:36;6.10;;;1.20;;
29814;SDS011;16708;50.426;7.664;2022-09-09T07:09:30;7.10;;;1.20;;
29814;SDS011;16708;50.426;7.664;2022-09-09T07:14:25;7.00;;;1.00;;
29814;SDS011;16708;50.426;7.664;2022-09-09T07:19:20;3.60;;;1.00;;
29814;SDS011;16708;50.426;7.664;2022-09-09T07:24:15;6.40;;;1.00;;
29814;SDS011;16708;50.426;7.664;2022-09-09T07:29:09;6.20;;;1.10;;
29814;SDS011;16708;50.426;7.664;2022-09-09T07:38:58;7.10;;;1.30;;
29814;SDS011;16708;50.426;7.664;2022-09-09T07:43:53;4.60;;;1.00;;
29814;SDS011;16708;50.426;7.664;2022-09-09T07:48:48;7.20;;;1.10;;
29814;SDS011;16708;50.426;7.664;2022-09-09T07:53:42;6.20;;;1.00;;
29814;SDS011;16708;50.426;7.664;2022-09-09T07:58:37;7.00;;;1.20;;
29814;SDS011;16708;50.426;7.664;2022-09-09T08:03:32;6.20;;;1.20;;
29814;SDS011;16708;50.426;7.664;2022-09-09T08:08:26;7.80;;;1.20;;
29814;SDS011;16708;50.426;7.664;2022-09-09T08:13:21;9.20;;;1.40;;
29814;SDS011;16708;50.426;7.664;2022-09-09T08:18:16;5.70;;;0.90;;
29814;SDS011;16708;50.426;7.664;2022-09-09T08:23:10;6.00;;;1.10;;
29814;SDS011;16708;50.426;7.664;2022-09-09T08:28:05;6.10;;;1.30;;
29814;SDS011;16708;50.426;7.664;2022-09-09T08:33:00;4.80;;;0.90;;
29814;SDS011;16708;50.426;7.664;2022-09-09T08:37:55;4.50;;;0.90;;
29814;SDS011;16708;50.426;7.664;2022-09-09T08:47:43;5.10;;;1.20;;
29814;SDS011;16708;50.426;7.664;2022-09-09T08:52:38;4.20;;;1.10;;
29814;SDS011;16708;50.426;7.664;2022-09-09T08:57:33;7.60;;;1.50;;
29814;SDS011;16708;50.426;7.664;2022-09-09T09:02:31;4.90;;;1.00;;
29814;SDS011;16708;50.426;7.664;2022-09-09T09:07:23;5.70;;;1.00;;
29814;SDS011;16708;50.426;7.664;2022-09-09T09:12:17;5.20;;;0.90;;
29814;SDS011;16708;50.426;7.664;2022-09-09T09:17:12;6.50;;;1.10;;
29814;SDS011;16708;50.426;7.664;2022-09-09T09:22:06;7.80;;;1.10;;
29814;SDS011;16708;50.426;7.664;2022-09-09T09:27:00;5.00;;;1.20;;
29814;SDS011;16708;50.426;7.664;2022-09-09T09:31:55;6.60;;;1.10;;
29814;SDS011;16708;50.426;7.664;2022-09-09T09:46:39;6.20;;;0.90;;
29814;SDS011;16708;50.426;7.664;2022-09-09T10:01:23;4.40;;;0.90;;
29814;SDS011;16708;50.426;7.664;2022-09-09T10:06:15;3.80;;;1.00;;
29814;SDS011;16708;50.426;7.664;2022-09-09T10:11:09;2.30;;;0.90;;
29814;SDS011;16708;50.426;7.664;2022-09-09T10:25:53;4.60;;;0.90;;
29814;SDS011;16708;50.426;7.664;2022-09-09T10:35:42;5.10;;;0.90;;
29814;SDS011;16708;50.426;7.664;2022-09-09T10:50:27;6.30;;;0.90;;
29814;SDS011;16708;50.426;7.664;2022-09-09T10:55:22;9.60;;;1.00;;
29814;SDS011;16708;50.426;7.664;2022-09-09T11:00:16;4.40;;;1.10;;
29814;SDS011;16708;50.426;7.664;2022-09-09T11:05:11;4.40;;;0.90;;
29814;SDS011;16708;50.426;7.664;2022-09-09T11:10:06;3.90;;;0.90;;
29814;SDS011;16708;50.426;7.664;2022-09-09T11:15:02;4.40;;;0.90;;
29814;SDS011;16708;50.426;7.664;2022-09-09T11:24:51;5.20;;;0.80;;
29814;SDS011;16708;50.426;7.664;2022-09-09T11:29:45;3.30;;;1.20;;
29814;SDS011;16708;50.426;7.664;2022-09-09T11:34:39;4.10;;;1.10;;
29814;SDS011;16708;50.426;7.664;2022-09-09T11:59:15;3.70;;;1.00;;
29814;SDS011;16708;50.426;7.664;2022-09-09T12:04:09;10.00;;;1.30;;
29814;SDS011;16708;50.426;7.664;2022-09-09T12:09:04;4.80;;;0.90;;
29814;SDS011;16708;50.426;7.664;2022-09-09T12:18:54;4.30;;;0.90;;
29814;SDS011;16708;50.426;7.664;2022-09-09T12:23:49;2.50;;;0.90;;
29814;SDS011;16708;50.426;7.664;2022-09-09T12:33:39;2.70;;;0.80;;
29814;SDS011;16708;50.426;7.664;2022-09-09T12:38:34;1.80;;;0.70;;
29814;SDS011;16708;50.426;7.664;2022-09-09T12:48:24;3.60;;;0.90;;
29814;SDS011;16708;50.426;7.664;2022-09-09T12:53:19;4.80;;;1.00;;
29814;SDS011;16708;50.426;7.664;2022-09-09T13:08:03;4.40;;;0.80;;
29814;SDS011;16708;50.426;7.664;2022-09-09T13:12:55;3.30;;;0.90;;
29814;SDS011;16708;50.426;7.664;2022-09-09T13:17:50;3.40;;;0.70;;
29814;SDS011;16708;50.426;7.664;2022-09-09T13:22:45;3.30;;;0.80;;
29814;SDS011;16708;50.426;7.664;2022-09-09T13:32:32;2.60;;;0.90;;
29814;SDS011;16708;50.426;7.664;2022-09-09T13:37:26;2.90;;;0.80;;
29814;SDS011;16708;50.426;7.664;2022-09-09T13:42:20;1.10;;;0.60;;
29814;SDS011;16708;50.426;7.664;2022-09-09T13:52:06;4.40;;;0.80;;
29814;SDS011;16708;50.426;7.664;2022-09-09T13:57:00;2.30;;;0.70;;
29814;SDS011;16708;50.426;7.664;2022-09-09T14:01:54;2.70;;;0.70;;
29814;SDS011;16708;50.426;7.664;2022-09-09T14:06:48;1.80;;;0.80;;
29814;SDS011;16708;50.426;7.664;2022-09-09T14:11:42;2.40;;;0.70;;
29814;SDS011;16708;50.426;7.664;2022-09-09T14:16:36;3.30;;;0.80;;
29814;SDS011;16708;50.426;7.664;2022-09-09T14:21:31;3.70;;;0.80;;
29814;SDS011;16708;50.426;7.664;2022-09-09T14:26:26;4.20;;;0.60;;
29814;SDS011;16708;50.426;7.664;2022-09-09T14:31:22;1.10;;;0.50;;
29814;SDS011;16708;50.426;7.664;2022-09-09T14:36:15;1.40;;;0.60;;
29814;SDS011;16708;50.426;7.664;2022-09-09T14:41:08;1.50;;;0.60;;
29814;SDS011;16708;50.426;7.664;2022-09-09T14:46:02;2.10;;;0.50;;
29814;SDS011;16708;50.426;7.664;2022-09-09T14:50:59;15.50;;;1.30;;
29814;SDS011;16708;50.426;7.664;2022-09-09T14:55:50;10.00;;;0.90;;
29814;SDS011;16708;50.426;7.664;2022-09-09T15:00:43;6.40;;;1.10;;
29814;SDS011;16708;50.426;7.664;2022-09-09T15:05:37;5.00;;;1.00;;
29814;SDS011;16708;50.426;7.664;2022-09-09T15:10:32;2.80;;;0.80;;
29814;SDS011;16708;50.426;7.664;2022-09-09T15:15:26;3.90;;;0.60;;
29814;SDS011;16708;50.426;7.664;2022-09-09T15:20:21;2.50;;;0.60;;
29814;SDS011;16708;50.426;7.664;2022-09-09T15:25:16;1.50;;;0.50;;
29814;SDS011;16708;50.426;7.664;2022-09-09T15:30:10;1.20;;;0.40;;
29814;SDS011;16708;50.426;7.664;2022-09-09T15:35:05;2.50;;;0.50;;
29814;SDS011;16708;50.426;7.664;2022-09-09T15:40:00;3.60;;;0.70;;
29814;SDS011;16708;50.426;7.664;2022-09-09T15:44:54;1.20;;;0.50;;
29814;SDS011;16708;50.426;7.664;2022-09-09T15:49:49;1.50;;;0.50;;
29814;SDS011;16708;50.426;7.664;2022-09-09T15:54:43;2.50;;;0.70;;
29814;SDS011;16708;50.426;7.664;2022-09-09T15:59:37;5.30;;;0.80;;
29814;SDS011;16708;50.426;7.664;2022-09-09T16:04:32;3.80;;;0.70;;
29814;SDS011;16708;50.426;7.664;2022-09-09T16:09:27;2.40;;;0.60;;
29814;SDS011;16708;50.426;7.664;2022-09-09T16:14:22;2.30;;;0.60;;
29814;SDS011;16708;50.426;7.664;2022-09-09T16:19:18;2.40;;;0.70;;
29814;SDS011;16708;50.426;7.664;2022-09-09T16:24:11;7.00;;;2.90;;
29814;SDS011;16708;50.426;7.664;2022-09-09T16:29:05;2.00;;;0.60;;
29814;SDS011;16708;50.426;7.664;2022-09-09T16:34:02;8.70;;;0.80;;
29814;SDS011;16708;50.426;7.664;2022-09-09T16:38:53;2.50;;;0.70;;
29814;SDS011;16708;50.426;7.664;2022-09-09T16:43:48;1.50;;;0.60;;
29814;SDS011;16708;50.426;7.664;2022-09-09T16:48:43;3.10;;;0.80;;
29814;SDS011;16708;50.426;7.664;2022-09-09T16:53:37;3.00;;;0.60;;
29814;SDS011;16708;50.426;7.664;2022-09-09T16:58:32;1.70;;;0.50;;
29814;SDS011;16708;50.426;7.664;2022-09-09T17:03:26;1.00;;;0.50;;
29814;SDS011;16708;50.426;7.664;2022-09-09T17:08:21;3.00;;;0.60;;
29814;SDS011;16708;50.426;7.664;2022-09-09T17:13:15;2.40;;;0.60;;
29814;SDS011;16708;50.426;7.664;2022-09-09T17:18:10;3.00;;;0.90;;
29814;SDS011;16708;50.426;7.664;2022-09-09T17:23:05;2.40;;;0.70;;
29814;SDS011;16708;50.426;7.664;2022-09-09T17:27:59;3.90;;;1.00;;
29814;SDS011;16708;50.426;7.664;2022-09-09T17:32:54;3.10;;;0.70;;
29814;SDS011;16708;50.426;7.664;2022-09-09T17:37:49;4.00;;;0.90;;
29814;SDS011;16708;50.426;7.664;2022-09-09T17:42:44;1.90;;;0.80;;
29814;SDS011;16708;50.426;7.664;2022-09-09T17:47:38;5.50;;;1.60;;
29814;SDS011;16708;50.426;7.664;2022-09-09T17:52:33;4.80;;;1.90;;
29814;SDS011;16708;50.426;7.664;2022-09-09T17:57:27;3.30;;;1.30;;
29814;SDS011;16708;50.426;7.664;2022-09-09T18:02:22;5.40;;;1.30;;
29814;SDS011;16708;50.426;7.664;2022-09-09T18:07:17;3.10;;;0.90;;
29814;SDS011;16708;50.426;7.664;2022-09-09T18:12:11;3.20;;;1.10;;
29814;SDS011;16708;50.426;7.664;2022-09-09T18:17:05;3.40;;;1.20;;
29814;SDS011;16708;50.426;7.664;2022-09-09T18:22:00;4.20;;;1.30;;
29814;SDS011;16708;50.426;7.664;2022-09-09T18:26:55;3.80;;;1.10;;
29814;SDS011;16708;50.426;7.664;2022-09-09T18:31:50;3.60;;;1.20;;
29814;SDS011;16708;50.426;7.664;2022-09-09T18:36:44;4.00;;;1.20;;
29814;SDS011;16708;50.426;7.664;2022-09-09T18:41:39;5.40;;;1.80;;
29814;SDS011;16708;50.426;7.664;2022-09-09T18:46:33;3.20;;;1.10;;
29814;SDS011;16708;50.426;7.664;2022-09-09T18:51:28;5.00;;;1.40;;
29814;SDS011;16708;50.426;7.664;2022-09-09T18:56:23;1.70;;;1.10;;
29814;SDS011;16708;50.426;7.664;2022-09-09T19:01:17;2.30;;;1.10;;
29814;SDS011;16708;50.426;7.664;2022-09-09T19:06:12;6.60;;;1.60;;
29814;SDS011;16708;50.426;7.664;2022-09-09T19:11:06;4.50;;;1.40;;
29814;SDS011;16708;50.426;7.664;2022-09-09T19:16:01;3.80;;;2.20;;
29814;SDS011;16708;50.426;7.664;2022-09-09T19:20:56;6.00;;;1.60;;
29814;SDS011;16708;50.426;7.664;2022-09-09T19:25:50;5.30;;;1.80;;
29814;SDS011;16708;50.426;7.664;2022-09-09T19:30:45;4.60;;;1.50;;
29814;SDS011;16708;50.426;7.664;2022-09-09T19:35:40;3.90;;;1.50;;
29814;SDS011;16708;50.426;7.664;2022-09-09T19:40:35;5.10;;;1.40;;
29814;SDS011;16708;50.426;7.664;2022-09-09T19:45:29;3.00;;;1.30;;
29814;SDS011;16708;50.426;7.664;2022-09-09T19:50:23;3.90;;;1.40;;
29814;SDS011;16708;50.426;7.664;2022-09-09T19:55:17;3.80;;;1.10;;
29814;SDS011;16708;50.426;7.664;2022-09-09T20:00:12;4.50;;;1.20;;
29814;SDS011;16708;50.426;7.664;2022-09-09T20:05:06;3.20;;;1.30;;
29814;SDS011;16708;50.426;7.664;2022-09-09T20:10:01;2.90;;;1.20;;
29814;SDS011;16708;50.426;7.664;2022-09-09T20:14:55;4.60;;;1.40;;
29814;SDS011;16708;50.426;7.664;2022-09-09T20:19:50;3.50;;;1.50;;
29814;SDS011;16708;50.426;7.664;2022-09-09T20:24:45;4.00;;;1.40;;
29814;SDS011;16708;50.426;7.664;2022-09-09T20:29:40;3.50;;;1.40;;
29814;SDS011;16708;50.426;7.664;2022-09-09T20:34:33;4.80;;;1.20;;
29814;SDS011;16708;50.426;7.664;2022-09-09T20:39:28;4.20;;;1.40;;
29814;SDS011;16708;50.426;7.664;2022-09-09T20:44:23;4.80;;;1.40;;
29814;SDS011;16708;50.426;7.664;2022-09-09T20:49:17;5.80;;;1.20;;
29814;SDS011;16708;50.426;7.664;2022-09-09T20:54:12;4.70;;;1.60;;
29814;SDS011;16708;50.426;7.664;2022-09-09T20:59:06;4.00;;;1.40;;
29814;SDS011;16708;50.426;7.664;2022-09-09T21:04:01;4.10;;;1.30;;
29814;SDS011;16708;50.426;7.664;2022-09-09T21:08:55;4.00;;;1.50;;
29814;SDS011;16708;50.426;7.664;2022-09-09T21:13:50;5.20;;;2.00;;
29814;SDS011;16708;50.426;7.664;2022-09-09T21:18:44;6.20;;;1.80;;
29814;SDS011;16708;50.426;7.664;2022-09-09T21:23:39;3.70;;;1.90;;
29814;SDS011;16708;50.426;7.664;2022-09-09T21:28:33;3.40;;;1.80;;
29814;SDS011;16708;50.426;7.664;2022-09-09T21:33:28;5.10;;;1.80;;
29814;SDS011;16708;50.426;7.664;2022-09-09T21:38:23;4.50;;;1.70;;
29814;SDS011;16708;50.426;7.664;2022-09-09T21:43:18;6.30;;;2.00;;
29814;SDS011;16708;50.426;7.664;2022-09-09T21:48:12;4.40;;;2.00;;
29814;SDS011;16708;50.426;7.664;2022-09-09T21:53:07;7.70;;;2.10;;
29814;SDS011;16708;50.426;7.664;2022-09-09T21:58:02;4.90;;;1.90;;
29814;SDS011;16708;50.426;7.664;2022-09-09T22:02:56;5.90;;;2.00;;
29814;SDS011;16708;50.426;7.664;2022-09-09T22:07:51;6.70;;;2.20;;
29814;SDS011;16708;50.426;7.664;2022-09-09T22:12:46;8.00;;;2.80;;
29814;SDS011;16708;50.426;7.664;2022-09-09T22:17:40;4.90;;;2.20;;
29814;SDS011;16708;50.426;7.664;2022-09-09T22:22:35;9.50;;;2.30;;
29814;SDS011;16708;50.426;7.664;2022-09-09T22:27:30;6.20;;;2.40;;
29814;SDS011;16708;50.426;7.664;2022-09-09T22:32:24;7.60;;;2.60;;
29814;SDS011;16708;50.426;7.664;2022-09-09T22:37:18;10.00;;;2.70;;
29814;SDS011;16708;50.426;7.664;2022-09-09T22:42:12;7.00;;;2.80;;
29814;SDS011;16708;50.426;7.664;2022-09-09T22:47:07;9.60;;;3.20;;
29814;SDS011;16708;50.426;7.664;2022-09-09T22:52:02;9.10;;;3.40;;
29814;SDS011;16708;50.426;7.664;2022-09-09T22:56:56;9.00;;;3.10;;
29814;SDS011;16708;50.426;7.664;2022-09-09T23:01:51;7.00;;;3.40;;
29814;SDS011;16708;50.426;7.664;2022-09-09T23:06:46;10.60;;;3.60;;
29814;SDS011;16708;50.426;7.664;2022-09-09T23:11:40;9.80;;;4.10;;
29814;SDS011;16708;50.426;7.664;2022-09-09T23:16:35;11.90;;;4.60;;
29814;SDS011;16708;50.426;7.664;2022-09-09T23:21:30;10.00;;;4.30;;
29814;SDS011;16708;50.426;7.664;2022-09-09T23:26:25;8.20;;;3.90;;
29814;SDS011;16708;50.426;7.664;2022-09-09T23:31:19;9.50;;;3.90;;
29814;SDS011;16708;50.426;7.664;2022-09-09T23:36:14;16.30;;;4.70;;
29814;SDS011;16708;50.426;7.664;2022-09-09T23:41:07;11.90;;;4.20;;
29814;SDS011;16708;50.426;7.664;2022-09-09T23:46:02;9.70;;;3.90;;
29814;SDS011;16708;50.426;7.664;2022-09-09T23:50:57;11.10;;;4.00;;
29814;SDS011;16708;50.426;7.664;2022-09-09T23:55:51;10.70;;;4.10;;
